Time;durP1;ratioP1;P1;durP2;ratioP2;P2;SDS_P1;SDS_P2;PMS_P1;PMS_P2;Temp;Humidity;BMP_temperature;BMP_pressure;BME280_temperature;BME280_humidity;BME280_pressure;Samples;Min_cycle;Max_cycle;Signal;HPM_P1;HPM_P2
2021/08/16 00:01:29;;;;;;;1059.35;954.95;;;;;;;;;;5005218;28;20080;-73
2021/08/16 00:03:56;;;;;;;1050.15;945.00;;;;;;;;;;5007602;28;20026;-73
2021/08/16 00:06:22;;;;;;;1054.35;950.08;;;;;;;;;;5008317;28;20057;-73
2021/08/16 00:08:48;;;;;;;1052.68;948.83;;;;;;;;;;5010690;28;20049;-74
2021/08/16 00:11:14;;;;;;;1054.50;950.53;;;;;;;;;;5008824;28;20113;-74
2021/08/16 00:13:40;;;;;;;1060.47;956.13;;;;;;;;;;5010403;28;20022;-74
2021/08/16 00:16:07;;;;;;;1050.75;946.95;;;;;;;;;;5010318;28;20030;-73
2021/08/16 00:18:34;;;;;;;1058.68;954.45;;;;;;;;;;5009321;28;20013;-73
2021/08/16 00:21:00;;;;;;;1061.80;957.30;;;;;;;;;;5009008;28;20480;-73
2021/08/16 00:23:26;;;;;;;1057.40;953.15;;;;;;;;;;5010082;28;20120;-73
2021/08/16 00:25:52;;;;;;;1058.82;954.15;;;;;;;;;;5009351;28;20125;-74
2021/08/16 00:28:18;;;;;;;1066.05;961.08;;;;;;;;;;5008469;28;20034;-74
2021/08/16 00:30:44;;;;;;;1063.00;958.22;;;;;;;;;;5009661;28;20049;-73
2021/08/16 00:33:10;;;;;;;1056.03;951.78;;;;;;;;;;5003228;28;20061;-74
2021/08/16 00:35:36;;;;;;;1067.68;961.47;;;;;;;;;;5011497;28;20017;-73
2021/08/16 00:38:03;;;;;;;1056.85;952.47;;;;;;;;;;5009387;28;20099;-74
2021/08/16 00:40:29;;;;;;;1063.72;959.08;;;;;;;;;;5010541;28;20033;-75
2021/08/16 00:42:55;;;;;;;1065.07;960.08;;;;;;;;;;5010109;28;20022;-74
2021/08/16 00:45:21;;;;;;;1065.78;960.50;;;;;;;;;;5005604;28;20025;-73
2021/08/16 00:47:47;;;;;;;1073.38;967.67;;;;;;;;;;5007449;28;20136;-73
2021/08/16 00:50:13;;;;;;;1066.35;961.08;;;;;;;;;;5008270;28;20113;-74
2021/08/16 00:52:40;;;;;;;1069.03;963.97;;;;;;;;;;5007816;28;20472;-74
2021/08/16 00:55:06;;;;;;;1056.22;951.67;;;;;;;;;;5008559;28;20032;-74
2021/08/16 00:57:32;;;;;;;1053.97;949.45;;;;;;;;;;5007590;28;20052;-74
2021/08/16 01:00:01;;;;;;;1053.10;947.40;;;;;;;;;;5008483;28;20029;-73
2021/08/16 01:02:28;;;;;;;1043.00;939.50;;;;;;;;;;5009513;28;20647;-73
2021/08/16 01:04:54;;;;;;;1049.25;945.28;;;;;;;;;;5006407;28;20030;-73
2021/08/16 01:07:20;;;;;;;1053.90;949.95;;;;;;;;;;5008882;28;20116;-73
2021/08/16 01:09:46;;;;;;;1047.10;943.50;;;;;;;;;;5006416;28;20361;-73
2021/08/16 01:12:13;;;;;;;1046.45;942.88;;;;;;;;;;5008823;28;20018;-73
2021/08/16 01:14:39;;;;;;;1043.00;939.60;;;;;;;;;;5007270;28;20460;-75
2021/08/16 01:17:05;;;;;;;1046.32;942.63;;;;;;;;;;5003254;28;20108;-73
2021/08/16 01:19:31;;;;;;;1039.00;935.88;;;;;;;;;;5009145;28;20395;-73
2021/08/16 01:21:58;;;;;;;1039.43;935.97;;;;;;;;;;5009063;28;20030;-74
2021/08/16 01:24:24;;;;;;;1039.20;935.45;;;;;;;;;;5010036;28;20056;-74
2021/08/16 01:26:49;;;;;;;1035.50;932.22;;;;;;;;;;5006229;28;20058;-73
2021/08/16 01:29:16;;;;;;;1035.07;931.88;;;;;;;;;;5007326;28;20042;-73
2021/08/16 01:31:43;;;;;;;1033.85;930.25;;;;;;;;;;5008178;28;20080;-74
2021/08/16 01:34:09;;;;;;;1029.90;926.58;;;;;;;;;;5008356;28;20022;-74
2021/08/16 01:36:35;;;;;;;1023.17;920.80;;;;;;;;;;5008860;28;20033;-75
2021/08/16 01:39:01;;;;;;;1026.45;923.75;;;;;;;;;;5006789;28;20022;-74
2021/08/16 01:41:27;;;;;;;1031.25;928.63;;;;;;;;;;5007523;28;20025;-75
2021/08/16 01:43:53;;;;;;;1038.13;935.13;;;;;;;;;;5008175;28;20505;-73
2021/08/16 01:46:22;;;;;;;1015.90;914.05;;;;;;;;;;5009708;28;20029;-74
2021/08/16 01:48:48;;;;;;;1022.13;919.97;;;;;;;;;;5002288;28;20034;-73
2021/08/16 01:51:14;;;;;;;1017.90;916.08;;;;;;;;;;5023396;28;20411;-74
2021/08/16 01:53:40;;;;;;;1015.30;913.20;;;;;;;;;;5007362;28;20463;-74
2021/08/16 01:56:05;;;;;;;1020.65;918.50;;;;;;;;;;5008560;28;20456;-74
2021/08/16 01:58:31;;;;;;;1019.33;917.03;;;;;;;;;;5008936;28;20475;-73
2021/08/16 02:00:57;;;;;;;1019.55;917.28;;;;;;;;;;5009076;28;20548;-73
2021/08/16 02:03:23;;;;;;;1024.25;921.17;;;;;;;;;;5003539;28;20452;-75
2021/08/16 02:05:49;;;;;;;1011.25;909.58;;;;;;;;;;5003755;28;20044;-74
2021/08/16 02:08:15;;;;;;;1013.45;911.85;;;;;;;;;;5009062;28;20030;-74
2021/08/16 02:10:41;;;;;;;1008.78;907.30;;;;;;;;;;5008795;28;20232;-73
2021/08/16 02:13:11;;;;;;;1004.30;903.00;;;;;;;;;;5007580;28;20033;-73
2021/08/16 02:15:39;;;;;;;1008.08;906.72;;;;;;;;;;5004955;28;20076;-74
2021/08/16 02:18:06;;;;;;;1011.40;909.65;;;;;;;;;;5009046;28;20030;-74
2021/08/16 02:20:32;;;;;;;1015.05;913.63;;;;;;;;;;5006816;28;20022;-74
2021/08/16 02:22:58;;;;;;;1016.25;914.33;;;;;;;;;;5007181;28;20567;-74
2021/08/16 02:25:24;;;;;;;1017.45;915.63;;;;;;;;;;5007987;28;20030;-73
2021/08/16 02:27:51;;;;;;;1018.13;916.15;;;;;;;;;;5007172;28;20121;-74
2021/08/16 02:30:18;;;;;;;1007.55;906.38;;;;;;;;;;5006450;28;20076;-73
2021/08/16 02:32:44;;;;;;;1019.00;917.00;;;;;;;;;;5008244;28;20417;-74
2021/08/16 02:35:10;;;;;;;1013.10;911.50;;;;;;;;;;5006978;28;20022;-74
2021/08/16 02:37:36;;;;;;;1019.25;917.47;;;;;;;;;;5009050;28;20081;-73
2021/08/16 02:40:02;;;;;;;1014.10;912.47;;;;;;;;;;5007574;28;20416;-74
2021/08/16 02:42:28;;;;;;;1021.65;920.17;;;;;;;;;;5012207;28;20053;-74
2021/08/16 02:44:54;;;;;;;1031.85;929.40;;;;;;;;;;5011017;28;20069;-73
2021/08/16 02:47:22;;;;;;;1018.72;917.05;;;;;;;;;;5012314;28;20098;-74
2021/08/16 02:49:49;;;;;;;1011.00;909.95;;;;;;;;;;5011948;28;20034;-73
2021/08/16 02:52:15;;;;;;;1023.30;921.58;;;;;;;;;;5012241;28;20022;-73
2021/08/16 02:54:42;;;;;;;1016.80;915.38;;;;;;;;;;5011148;28;20084;-73
2021/08/16 02:57:08;;;;;;;1025.07;922.70;;;;;;;;;;5012079;28;20346;-73
2021/08/16 02:59:34;;;;;;;1019.38;917.78;;;;;;;;;;5010087;28;20029;-75
2021/08/16 03:02:00;;;;;;;1024.72;922.65;;;;;;;;;;5016471;28;20022;-74
2021/08/16 03:04:26;;;;;;;1019.88;918.45;;;;;;;;;;5012334;28;20026;-74
2021/08/16 03:06:52;;;;;;;1020.38;918.35;;;;;;;;;;5010903;28;20227;-73
2021/08/16 03:09:18;;;;;;;1031.68;929.10;;;;;;;;;;5011012;28;20041;-73
2021/08/16 03:11:44;;;;;;;1024.85;922.78;;;;;;;;;;5010913;28;20034;-74
2021/08/16 03:14:10;;;;;;;1017.60;916.03;;;;;;;;;;5011593;28;20100;-74
2021/08/16 03:16:36;;;;;;;1010.50;909.38;;;;;;;;;;5011655;28;20056;-72
2021/08/16 03:19:02;;;;;;;1014.03;912.47;;;;;;;;;;5009644;28;20433;-73
2021/08/16 03:21:28;;;;;;;1016.25;914.47;;;;;;;;;;5010620;28;20120;-73
2021/08/16 03:23:54;;;;;;;1011.10;910.05;;;;;;;;;;5011469;28;20454;-73
2021/08/16 03:26:20;;;;;;;1009.80;908.70;;;;;;;;;;5011270;28;20086;-73
2021/08/16 03:28:46;;;;;;;1006.40;904.83;;;;;;;;;;5011528;28;20038;-74
2021/08/16 03:31:12;;;;;;;1006.53;905.60;;;;;;;;;;5009349;28;20034;-73
2021/08/16 03:33:38;;;;;;;1000.33;899.58;;;;;;;;;;5011808;28;20349;-74
2021/08/16 03:36:05;;;;;;;999.78;899.40;;;;;;;;;;5011383;28;20044;-74
2021/08/16 03:38:31;;;;;;;1009.25;907.10;;;;;;;;;;5009923;28;20037;-73
2021/08/16 03:40:57;;;;;;;1008.22;907.25;;;;;;;;;;5010494;28;20093;-73
2021/08/16 03:43:23;;;;;;;1005.50;904.55;;;;;;;;;;5011999;28;20591;-73
2021/08/16 03:45:49;;;;;;;1009.08;908.20;;;;;;;;;;5008247;28;20034;-74
2021/08/16 03:48:15;;;;;;;1014.17;913.10;;;;;;;;;;5010967;28;20491;-74
2021/08/16 03:50:41;;;;;;;1006.92;906.03;;;;;;;;;;5009593;28;20038;-74
2021/08/16 03:53:07;;;;;;;1014.13;912.50;;;;;;;;;;5008864;28;20022;-73
2021/08/16 03:55:33;;;;;;;1015.90;914.55;;;;;;;;;;5009437;28;20022;-73
2021/08/16 03:57:59;;;;;;;1009.65;908.63;;;;;;;;;;5011317;28;20030;-74
2021/08/16 04:00:25;;;;;;;1019.17;917.55;;;;;;;;;;5008439;28;20022;-73
2021/08/16 04:02:51;;;;;;;1015.22;913.72;;;;;;;;;;5010211;28;20034;-73
2021/08/16 04:05:17;;;;;;;1017.75;916.35;;;;;;;;;;4996324;28;20103;-73
2021/08/16 04:07:43;;;;;;;1024.22;922.25;;;;;;;;;;5008909;28;20081;-73
2021/08/16 04:10:10;;;;;;;1018.05;916.55;;;;;;;;;;5010182;28;20037;-73
2021/08/16 04:12:36;;;;;;;1014.45;913.35;;;;;;;;;;5009458;28;20046;-73
2021/08/16 04:15:03;;;;;;;1014.55;913.45;;;;;;;;;;5011264;28;20062;-73
2021/08/16 04:17:29;;;;;;;1013.13;911.88;;;;;;;;;;5008148;28;20026;-74
2021/08/16 04:19:55;;;;;;;1011.30;910.22;;;;;;;;;;5007612;28;20092;-74
2021/08/16 04:22:21;;;;;;;1022.17;920.28;;;;;;;;;;5004413;28;20029;-74
2021/08/16 04:24:47;;;;;;;1019.00;917.50;;;;;;;;;;5010765;28;20029;-74
2021/08/16 04:27:13;;;;;;;1025.40;923.28;;;;;;;;;;5009098;28;20026;-73
2021/08/16 04:29:39;;;;;;;1022.40;920.13;;;;;;;;;;5006196;28;20553;-72
2021/08/16 04:32:05;;;;;;;1014.17;912.85;;;;;;;;;;5001188;28;20333;-73
2021/08/16 04:34:31;;;;;;;1011.30;910.38;;;;;;;;;;5010411;28;20412;-74
2021/08/16 04:36:57;;;;;;;1010.90;909.60;;;;;;;;;;5009040;28;20033;-73
2021/08/16 04:39:23;;;;;;;1007.67;906.13;;;;;;;;;;5009014;28;20022;-73
2021/08/16 04:41:50;;;;;;;1011.83;910.20;;;;;;;;;;5009770;28;20730;-72
2021/08/16 04:44:16;;;;;;;1011.53;910.08;;;;;;;;;;5010331;28;20022;-72
2021/08/16 04:46:42;;;;;;;1009.92;908.53;;;;;;;;;;5008016;28;20033;-73
2021/08/16 04:49:08;;;;;;;1006.60;905.58;;;;;;;;;;5008290;28;20511;-73
2021/08/16 04:51:34;;;;;;;1010.65;909.03;;;;;;;;;;5003617;28;20034;-72
2021/08/16 04:54:01;;;;;;;1003.72;903.08;;;;;;;;;;5008441;28;20085;-74
2021/08/16 04:56:27;;;;;;;1007.20;906.40;;;;;;;;;;5009953;28;20010;-73
2021/08/16 04:58:53;;;;;;;1020.30;918.47;;;;;;;;;;5008189;28;20033;-73
2021/08/16 05:01:19;;;;;;;1014.83;913.50;;;;;;;;;;5008686;28;20026;-73
2021/08/16 05:03:45;;;;;;;1014.75;913.55;;;;;;;;;;5009634;28;20045;-73
2021/08/16 05:06:11;;;;;;;1013.00;911.50;;;;;;;;;;5008498;28;20034;-73
2021/08/16 05:08:37;;;;;;;1018.10;916.80;;;;;;;;;;5009172;28;20415;-74
2021/08/16 05:11:06;;;;;;;1017.75;916.20;;;;;;;;;;5009639;28;20033;-73
2021/08/16 05:13:32;;;;;;;1013.88;912.58;;;;;;;;;;5008574;28;20041;-74
2021/08/16 05:15:58;;;;;;;1016.08;914.63;;;;;;;;;;5008726;28;20061;-73
2021/08/16 05:18:24;;;;;;;1018.25;917.05;;;;;;;;;;5008412;28;20037;-75
2021/08/16 05:20:51;;;;;;;1016.25;914.70;;;;;;;;;;5009526;28;20042;-73
2021/08/16 05:23:18;;;;;;;1009.45;908.75;;;;;;;;;;5007277;28;20044;-73
2021/08/16 05:25:44;;;;;;;1015.30;914.10;;;;;;;;;;5008215;28;20446;-73
2021/08/16 05:28:10;;;;;;;1014.13;913.08;;;;;;;;;;5008874;28;20510;-73
2021/08/16 05:30:36;;;;;;;1004.42;903.67;;;;;;;;;;5004729;28;20026;-73
2021/08/16 05:33:03;;;;;;;1003.70;903.10;;;;;;;;;;5001805;28;20041;-74
2021/08/16 05:35:29;;;;;;;1006.08;905.13;;;;;;;;;;5009132;28;20029;-74
2021/08/16 05:37:55;;;;;;;1010.75;909.70;;;;;;;;;;5008194;28;20024;-73
2021/08/16 05:40:21;;;;;;;1017.67;916.67;;;;;;;;;;5007824;28;20018;-74
2021/08/16 05:42:47;;;;;;;1011.22;910.60;;;;;;;;;;5008725;28;20030;-73
2021/08/16 05:45:13;;;;;;;1022.70;921.28;;;;;;;;;;5009356;28;20113;-74
2021/08/16 05:47:39;;;;;;;1021.55;920.47;;;;;;;;;;5003969;28;20506;-74
2021/08/16 05:50:05;;;;;;;1019.28;918.20;;;;;;;;;;5009222;28;20045;-74
2021/08/16 05:52:32;;;;;;;1027.50;925.92;;;;;;;;;;5006143;28;20176;-73
2021/08/16 05:54:58;;;;;;;1028.07;926.58;;;;;;;;;;5008488;28;20040;-73
2021/08/16 05:57:24;;;;;;;1025.55;924.15;;;;;;;;;;5005568;28;20026;-73
2021/08/16 05:59:50;;;;;;;1024.95;923.05;;;;;;;;;;5007594;28;20329;-74
2021/08/16 06:02:16;;;;;;;1022.88;921.55;;;;;;;;;;4993038;28;20045;-74
2021/08/16 06:04:41;;;;;;;1028.15;926.35;;;;;;;;;;5002206;28;20535;-74
2021/08/16 06:07:07;;;;;;;1025.30;923.85;;;;;;;;;;5008286;28;20061;-74
2021/08/16 06:09:33;;;;;;;1019.55;918.67;;;;;;;;;;5007327;28;20025;-72
2021/08/16 06:11:59;;;;;;;1019.17;918.15;;;;;;;;;;5009878;28;20041;-74
2021/08/16 06:14:25;;;;;;;1015.05;913.92;;;;;;;;;;5006674;28;20037;-74
2021/08/16 06:16:51;;;;;;;1030.25;928.58;;;;;;;;;;5004453;28;20029;-76
2021/08/16 06:19:17;;;;;;;1019.83;918.95;;;;;;;;;;5006190;28;20537;-74
2021/08/16 06:21:43;;;;;;;1029.50;928.05;;;;;;;;;;5003663;28;20030;-74
2021/08/16 06:24:10;;;;;;;1032.07;930.20;;;;;;;;;;5003143;28;20088;-74
2021/08/16 06:26:37;;;;;;;1034.75;932.95;;;;;;;;;;5009111;28;20040;-73
2021/08/16 06:29:03;;;;;;;1030.05;928.72;;;;;;;;;;5006358;28;20041;-75
2021/08/16 06:31:29;;;;;;;1025.95;924.65;;;;;;;;;;5007990;28;20022;-74
2021/08/16 06:33:55;;;;;;;1026.57;925.58;;;;;;;;;;5008351;28;20635;-73
2021/08/16 06:36:21;;;;;;;1028.32;926.65;;;;;;;;;;5008865;28;20659;-74
2021/08/16 06:38:48;;;;;;;1040.00;938.00;;;;;;;;;;5003428;28;20034;-72
2021/08/16 06:41:15;;;;;;;1039.78;938.00;;;;;;;;;;5004685;28;20504;-73
2021/08/16 06:43:42;;;;;;;1038.18;935.83;;;;;;;;;;5004833;28;20030;-73
2021/08/16 06:46:24;;;;;;;1049.30;946.40;;;;;;;;;;5008895;28;20033;-76
2021/08/16 06:48:51;;;;;;;1033.88;931.90;;;;;;;;;;4989963;28;20057;-74
2021/08/16 06:51:17;;;;;;;1042.28;940.03;;;;;;;;;;5008407;28;20030;-74
2021/08/16 06:53:43;;;;;;;1036.47;934.45;;;;;;;;;;5005541;28;20015;-75
2021/08/16 06:56:09;;;;;;;1021.65;920.78;;;;;;;;;;5007164;28;20046;-74
2021/08/16 06:58:34;;;;;;;1035.35;933.25;;;;;;;;;;5007581;28;20034;-74
2021/08/16 07:01:00;;;;;;;1031.40;929.50;;;;;;;;;;5003094;28;20037;-76
2021/08/16 07:03:29;;;;;;;1031.20;928.95;;;;;;;;;;5006747;28;20029;-74
2021/08/16 07:05:55;;;;;;;1020.03;918.80;;;;;;;;;;5007481;28;20107;-75
2021/08/16 07:08:21;;;;;;;1024.35;922.85;;;;;;;;;;5007458;28;20042;-75
2021/08/16 07:10:49;;;;;;;1025.57;924.00;;;;;;;;;;5004862;28;20480;-75
2021/08/16 07:13:15;;;;;;;988.00;889.95;;;;;;;;;;5007488;28;20121;-74
2021/08/16 07:15:41;;;;;;;1019.13;917.72;;;;;;;;;;5003728;28;20654;-75
2021/08/16 07:18:07;;;;;;;1003.80;903.97;;;;;;;;;;5007261;28;20030;-74
2021/08/16 07:20:33;;;;;;;1004.58;904.15;;;;;;;;;;5003212;28;20427;-72
2021/08/16 07:22:59;;;;;;;1033.10;931.50;;;;;;;;;;5000893;28;20105;-74
2021/08/16 07:25:25;;;;;;;1030.75;929.33;;;;;;;;;;5004165;28;20440;-74
2021/08/16 07:27:51;;;;;;;1031.53;929.97;;;;;;;;;;5007618;28;20111;-75
2021/08/16 07:30:17;;;;;;;1032.07;930.80;;;;;;;;;;5007939;28;20030;-76
2021/08/16 07:32:43;;;;;;;1014.58;914.38;;;;;;;;;;5009983;28;20397;-74
2021/08/16 07:35:09;;;;;;;1022.60;922.00;;;;;;;;;;5012288;28;20022;-74
2021/08/16 07:37:35;;;;;;;1012.53;912.55;;;;;;;;;;5009846;28;20033;-73
2021/08/16 07:40:01;;;;;;;1011.53;911.45;;;;;;;;;;5010404;28;20030;-73
2021/08/16 07:42:28;;;;;;;1007.13;907.40;;;;;;;;;;5010674;28;20030;-74
2021/08/16 07:44:54;;;;;;;1006.65;906.67;;;;;;;;;;5010552;28;20041;-74
2021/08/16 07:47:20;;;;;;;996.45;897.25;;;;;;;;;;5008047;28;20451;-74
2021/08/16 07:49:46;;;;;;;1024.53;923.90;;;;;;;;;;5009360;28;20034;-76
2021/08/16 07:52:12;;;;;;;975.17;878.35;;;;;;;;;;5005773;28;20104;-74
2021/08/16 07:54:38;;;;;;;1007.55;907.95;;;;;;;;;;5010704;28;20057;-74
2021/08/16 07:57:04;;;;;;;1005.40;905.92;;;;;;;;;;5009208;28;20080;-74
2021/08/16 07:59:30;;;;;;;1016.28;916.38;;;;;;;;;;5011390;28;20099;-74
2021/08/16 08:01:56;;;;;;;1017.35;917.08;;;;;;;;;;5007277;28;20389;-74
2021/08/16 08:04:22;;;;;;;1020.63;920.25;;;;;;;;;;5008403;28;20041;-74
2021/08/16 08:06:48;;;;;;;1014.90;914.72;;;;;;;;;;5009582;28;20713;-75
2021/08/16 08:09:14;;;;;;;1019.90;919.20;;;;;;;;;;5009557;28;20444;-73
2021/08/16 08:11:40;;;;;;;1027.18;925.88;;;;;;;;;;5008975;28;20022;-74
2021/08/16 08:14:06;;;;;;;982.28;885.38;;;;;;;;;;5010192;28;20484;-74
2021/08/16 08:16:32;;;;;;;1028.13;926.85;;;;;;;;;;5004790;28;20037;-75
2021/08/16 08:18:58;;;;;;;972.72;877.00;;;;;;;;;;5004218;28;20583;-74
2021/08/16 08:21:24;;;;;;;866.85;778.47;;;;;;;;;;5005131;28;20022;-73
2021/08/16 08:23:51;;;;;;;1037.15;935.75;;;;;;;;;;5006434;28;20037;-72
2021/08/16 08:26:17;;;;;;;805.13;721.83;;;;;;;;;;5007186;28;20054;-73
2021/08/16 08:28:43;;;;;;;1310.18;583.70;;;;;;;;;;5010823;28;20088;-73
2021/08/16 08:31:09;;;;;;;847.17;761.53;;;;;;;;;;5010087;28;20026;-74
2021/08/16 08:33:37;;;;;;;965.70;869.50;;;;;;;;;;5003942;28;20030;-74
2021/08/16 08:36:03;;;;;;;945.15;845.55;;;;;;;;;;5007811;28;20018;-73
2021/08/16 08:38:29;;;;;;;1010.85;913.55;;;;;;;;;;5007819;28;20402;-73
2021/08/16 08:40:58;;;;;;;1999.90;999.90;;;;;;;;;;5007589;28;20030;-73
2021/08/16 08:43:25;;;;;;;1009.55;911.40;;;;;;;;;;5007925;28;20129;-74
2021/08/16 08:45:55;;;;;;;1046.32;945.53;;;;;;;;;;5008980;28;20058;-74
2021/08/16 08:48:21;;;;;;;;;;;;;;;;;;5009920;28;20092;-73
2021/08/16 08:50:48;;;;;;;1015.00;914.85;;;;;;;;;;5007880;28;19917;-73
2021/08/16 08:53:15;;;;;;;1039.35;937.45;;;;;;;;;;5005890;28;20024;-75
2021/08/16 08:55:41;;;;;;;1039.70;937.63;;;;;;;;;;5007440;28;20026;-75
2021/08/16 08:58:07;;;;;;;1039.70;937.70;;;;;;;;;;5008169;28;20735;-73
2021/08/16 09:00:33;;;;;;;1023.55;922.65;;;;;;;;;;5008600;28;20061;-74
2021/08/16 09:03:00;;;;;;;1020.45;919.72;;;;;;;;;;5007970;28;20124;-75
2021/08/16 09:05:26;;;;;;;1011.00;911.00;;;;;;;;;;5008562;28;20021;-73
2021/08/16 09:07:57;;;;;;;1013.60;913.00;;;;;;;;;;5003226;28;20136;-73
2021/08/16 09:10:25;;;;;;;1018.97;918.22;;;;;;;;;;5008139;28;20422;-74
2021/08/16 09:12:57;;;;;;;1019.83;918.78;;;;;;;;;;5006842;28;20049;-74
2021/08/16 09:15:24;;;;;;;1013.67;913.22;;;;;;;;;;5000018;28;20022;-72
2021/08/16 09:17:52;;;;;;;1011.25;911.05;;;;;;;;;;5008291;28;20033;-72
2021/08/16 09:20:20;;;;;;;1013.97;913.58;;;;;;;;;;5002033;28;20084;-71
2021/08/16 09:22:57;;;;;;;1019.20;918.10;;;;;;;;;;5007675;28;20034;-71
2021/08/16 09:25:23;;;;;;;1012.95;912.25;;;;;;;;;;5009303;28;20467;-71
2021/08/16 09:27:49;;;;;;;1021.00;919.58;;;;;;;;;;5002116;28;20022;-72
2021/08/16 09:30:16;;;;;;;1018.83;917.75;;;;;;;;;;5007757;28;20072;-73
2021/08/16 09:32:44;;;;;;;1020.72;918.15;;;;;;;;;;5008794;28;20038;-72
2021/08/16 09:35:11;;;;;;;1029.47;928.22;;;;;;;;;;5008258;28;20245;-73
2021/08/16 09:37:38;;;;;;;1035.22;933.67;;;;;;;;;;5005488;28;20095;-80
2021/08/16 09:40:10;;;;;;;1050.60;947.97;;;;;;;;;;5005370;28;20084;-76
2021/08/16 09:42:41;;;;;;;1040.90;939.40;;;;;;;;;;5005482;28;20029;-75
2021/08/16 09:45:07;;;;;;;1058.82;956.35;;;;;;;;;;4996816;28;20037;-75
2021/08/16 09:47:44;;;;;;;1080.55;976.95;;;;;;;;;;5004731;28;20018;-72
2021/08/16 09:50:11;;;;;;;1098.43;993.83;;;;;;;;;;5002742;28;20039;-72
2021/08/16 09:52:37;;;;;;;1106.43;997.95;;;;;;;;;;4994705;28;20349;-72
2021/08/16 09:55:03;;;;;;;1100.32;995.92;;;;;;;;;;5005035;28;20056;-72
2021/08/16 09:57:33;;;;;;;1111.38;999.90;;;;;;;;;;5004159;28;20486;-72
2021/08/16 09:59:59;;;;;;;1029.77;934.87;;;;;;;;;;5003746;28;20064;-72
2021/08/16 10:02:28;;;;;;;1067.53;969.08;;;;;;;;;;4996872;28;20034;-74
2021/08/16 10:04:55;;;;;;;1096.32;995.15;;;;;;;;;;4998731;28;20527;-77
2021/08/16 10:07:22;;;;;;;995.42;903.85;;;;;;;;;;5003678;28;20046;-77
2021/08/16 10:09:49;;;;;;;776.55;699.42;;;;;;;;;;5002705;28;20047;-79
2021/08/16 10:12:16;;;;;;;887.10;802.65;;;;;;;;;;5016410;28;20121;-74
2021/08/16 10:14:42;;;;;;;858.00;775.38;;;;;;;;;;4996898;28;20866;-74
2021/08/16 10:17:08;;;;;;;906.00;819.58;;;;;;;;;;5002471;28;20030;-76
2021/08/16 10:19:37;;;;;;;1016.92;921.45;;;;;;;;;;4997834;28;20041;-74
2021/08/16 10:22:04;;;;;;;979.38;886.70;;;;;;;;;;5002564;28;20026;-75
2021/08/16 10:24:30;;;;;;;997.08;902.53;;;;;;;;;;5002544;28;20018;-74
2021/08/16 10:26:58;;;;;;;535.65;391.73;;;;;;;;;;5002403;28;20334;-74
2021/08/16 10:29:24;;;;;;;911.72;822.55;;;;;;;;;;5003642;28;20041;-77
2021/08/16 10:31:52;;;;;;;750.65;670.75;;;;;;;;;;4999689;28;20026;-77
2021/08/16 10:34:38;;;;;;;805.40;722.67;;;;;;;;;;5000717;28;20033;-74
2021/08/16 10:37:04;;;;;;;805.05;722.20;;;;;;;;;;5010306;28;20021;-77
2021/08/16 10:39:34;;;;;;;663.83;577.85;;;;;;;;;;5003587;28;20022;-77
2021/08/16 10:42:04;;;;;;;549.13;367.45;;;;;;;;;;5003717;28;20507;-75
2021/08/16 10:44:37;;;;;;;559.50;383.45;;;;;;;;;;4999302;28;20448;-75
2021/08/16 10:47:04;;;;;;;525.10;318.85;;;;;;;;;;5001528;28;20037;-76
2021/08/16 10:49:34;;;;;;;479.50;244.52;;;;;;;;;;5003388;28;20132;-78
2021/08/16 10:52:00;;;;;;;1030.72;928.97;;;;;;;;;;5000973;28;20037;-79
2021/08/16 10:54:26;;;;;;;1038.28;936.85;;;;;;;;;;5002932;28;20072;-79
2021/08/16 10:56:54;;;;;;;1042.93;941.28;;;;;;;;;;5006629;28;20038;-77
2021/08/16 10:59:21;;;;;;;1032.95;932.13;;;;;;;;;;5006211;28;20022;-78
2021/08/16 11:01:48;;;;;;;1036.20;935.03;;;;;;;;;;5010771;28;20022;-75
2021/08/16 11:04:16;;;;;;;1038.10;936.42;;;;;;;;;;5005624;28;20026;-76
2021/08/16 11:06:55;;;;;;;1039.63;937.75;;;;;;;;;;5006788;28;20623;-76
2021/08/16 11:09:25;;;;;;;1034.40;933.40;;;;;;;;;;5024168;28;20046;-74
2021/08/16 11:11:53;;;;;;;1043.53;942.13;;;;;;;;;;5006717;28;20052;-74
2021/08/16 11:14:23;;;;;;;1035.75;934.58;;;;;;;;;;5010318;28;20028;-75
2021/08/16 11:16:52;;;;;;;1034.78;933.42;;;;;;;;;;5006713;28;20168;-74
2021/08/16 11:19:18;;;;;;;1040.07;938.53;;;;;;;;;;5007909;28;20026;-77
2021/08/16 11:22:00;;;;;;;1033.97;932.72;;;;;;;;;;5001934;28;20022;-75
2021/08/16 11:24:29;;;;;;;1030.10;928.92;;;;;;;;;;5009402;28;20034;-78
2021/08/16 11:26:55;;;;;;;1032.28;930.92;;;;;;;;;;5023267;28;20122;-77
2021/08/16 11:29:23;;;;;;;1034.55;933.28;;;;;;;;;;5007201;28;20522;-75
2021/08/16 11:32:01;;;;;;;1030.97;930.10;;;;;;;;;;5010319;28;20384;-76
2021/08/16 11:34:30;;;;;;;1028.10;927.45;;;;;;;;;;5011885;28;20092;-74
2021/08/16 11:36:56;;;;;;;1038.07;936.85;;;;;;;;;;5014927;28;20053;-75
2021/08/16 11:39:29;;;;;;;1028.22;927.65;;;;;;;;;;5007949;28;20022;-76
2021/08/16 11:42:02;;;;;;;1032.80;932.15;;;;;;;;;;5026433;28;20451;-75
2021/08/16 11:44:30;;;;;;;1039.60;938.15;;;;;;;;;;5025068;28;20096;-74
2021/08/16 11:47:00;;;;;;;1040.18;939.15;;;;;;;;;;5006895;28;20495;-70
2021/08/16 11:49:27;;;;;;;1035.78;935.30;;;;;;;;;;5004118;28;20038;-75
2021/08/16 11:51:54;;;;;;;1044.32;943.03;;;;;;;;;;5003621;28;20044;-75
2021/08/16 11:54:24;;;;;;;1034.03;933.78;;;;;;;;;;5007301;28;20091;-75
2021/08/16 11:56:51;;;;;;;1040.55;939.65;;;;;;;;;;5010755;28;20495;-75
2021/08/16 11:59:17;;;;;;;1038.22;937.47;;;;;;;;;;5009424;28;20083;-75
2021/08/16 12:01:43;;;;;;;1038.30;937.40;;;;;;;;;;5006910;28;20591;-74
2021/08/16 12:04:11;;;;;;;1053.45;951.50;;;;;;;;;;5008463;28;20026;-75
2021/08/16 12:06:37;;;;;;;1055.00;952.72;;;;;;;;;;5004892;28;20068;-75
2021/08/16 12:09:09;;;;;;;1043.35;941.70;;;;;;;;;;5003547;28;20073;-76
2021/08/16 12:11:36;;;;;;;1046.82;945.03;;;;;;;;;;5007876;28;20030;-75
2021/08/16 12:14:05;;;;;;;1052.18;949.67;;;;;;;;;;5023636;28;20081;-75
2021/08/16 12:16:32;;;;;;;1053.15;950.72;;;;;;;;;;5028655;28;20025;-75
2021/08/16 12:18:58;;;;;;;1061.90;958.95;;;;;;;;;;5022682;28;20099;-76
2021/08/16 12:21:27;;;;;;;1051.40;949.97;;;;;;;;;;4997715;28;20025;-78
2021/08/16 12:23:54;;;;;;;1062.45;959.95;;;;;;;;;;5008470;28;20088;-73
2021/08/16 12:26:30;;;;;;;1062.68;960.25;;;;;;;;;;5016453;28;20040;-75
2021/08/16 12:28:56;;;;;;;1049.78;948.17;;;;;;;;;;5026509;28;20067;-76
2021/08/16 12:31:28;;;;;;;1045.95;944.95;;;;;;;;;;5010082;28;20037;-75
2021/08/16 12:33:57;;;;;;;1045.15;944.17;;;;;;;;;;5009772;28;20375;-75
2021/08/16 12:36:24;;;;;;;1041.88;941.38;;;;;;;;;;5010834;28;20021;-77
2021/08/16 12:39:01;;;;;;;1051.82;949.97;;;;;;;;;;5010272;28;20392;-76
2021/08/16 12:41:28;;;;;;;956.30;863.17;;;;;;;;;;5008375;28;20523;-76
2021/08/16 12:43:55;;;;;;;965.53;871.92;;;;;;;;;;5009418;28;20031;-75
2021/08/16 12:46:30;;;;;;;956.95;863.65;;;;;;;;;;5008248;28;20503;-76
2021/08/16 12:48:56;;;;;;;953.20;860.22;;;;;;;;;;5010473;28;20468;-75
2021/08/16 12:51:23;;;;;;;952.88;859.70;;;;;;;;;;5008664;28;20041;-76
2021/08/16 12:53:48;;;;;;;961.92;868.22;;;;;;;;;;5008388;28;20041;-75
2021/08/16 12:56:14;;;;;;;951.22;858.33;;;;;;;;;;5007320;28;20022;-75
2021/08/16 12:58:40;;;;;;;955.35;862.05;;;;;;;;;;5008705;28;20037;-76
2021/08/16 13:01:07;;;;;;;960.70;867.15;;;;;;;;;;5009489;28;20399;-76
2021/08/16 13:03:33;;;;;;;939.20;846.88;;;;;;;;;;5010410;28;20038;-76
2021/08/16 13:05:59;;;;;;;937.55;844.83;;;;;;;;;;5009382;28;20060;-76
2021/08/16 13:08:29;;;;;;;946.17;853.67;;;;;;;;;;5006045;28;20049;-78
2021/08/16 13:10:55;;;;;;;936.92;844.85;;;;;;;;;;5009013;28;20030;-77
2021/08/16 13:13:21;;;;;;;950.20;857.15;;;;;;;;;;5009645;28;20053;-77
2021/08/16 13:15:47;;;;;;;977.20;881.97;;;;;;;;;;5009014;28;20026;-76
2021/08/16 13:18:13;;;;;;;978.13;882.67;;;;;;;;;;5008752;28;20118;-76
2021/08/16 13:20:39;;;;;;;983.50;887.60;;;;;;;;;;5008846;28;20749;-76
2021/08/16 13:23:10;;;;;;;994.85;899.25;;;;;;;;;;5009338;28;20093;-76
2021/08/16 13:25:35;;;;;;;1007.65;911.13;;;;;;;;;;5005504;28;20117;-76
2021/08/16 13:28:02;;;;;;;1010.83;914.58;;;;;;;;;;5007067;28;20622;-76
2021/08/16 13:30:28;;;;;;;1015.45;919.05;;;;;;;;;;5010621;28;20088;-77
2021/08/16 13:32:54;;;;;;;1011.40;915.05;;;;;;;;;;5009433;28;20037;-77
2021/08/16 13:35:20;;;;;;;1011.08;914.90;;;;;;;;;;5009783;28;20029;-76
2021/08/16 13:37:46;;;;;;;1001.40;905.20;;;;;;;;;;5012230;28;20041;-77
2021/08/16 13:40:12;;;;;;;1003.38;907.08;;;;;;;;;;5008434;28;20095;-76